Date,TemperatureHighF,TemperatureAvgF,TemperatureLowF,DewpointHighF,DewpointAvgF,DewpointLowF,HumidityHigh,HumidityAvg,HumidityLow,PressureMaxIn,PressureMinIn,WindSpeedMaxMPH,WindSpeedAvgMPH,GustSpeedMaxMPH,PrecipitationSumIn
2013-1-1,23.1,14.8,7.2,19.4,7.7,2.5,91,74,51,30.31,30.16,14,4,14,0.00
2013-1-2,26.5,17.2,4.2,17.1,12.1,1.7,90,81,55,30.27,30.16,19,7,19,0.00
2013-1-3,32.2,22.1,14.3,29.4,18.0,10.5,98,84,72,30.38,30.18,30,9,30,0.00
2013-1-4,35.1,23.4,10.6,26.4,19.2,7.2,94,84,60,30.37,30.28,19,8,19,0.00
2013-1-5,36.1,31.3,16.9,35.2,30.4,15.5,100,97,86,30.29,30.02,26,10,26,0.00
2013-1-6,35.8,24.6,18.7,35.1,21.9,17.3,99,90,78,30.37,30.01,37,7,37,0.00
2013-1-7,38.9,29.8,16.6,31.8,27.4,15.2,98,91,67,30.38,30.15,28,8,28,0.00
2013-1-8,44.1,35.9,27.3,35.9,32.5,25.9,96,87,71,30.20,30.10,16,8,18,0.00
2013-1-9,48.9,37.7,30.8,38.4,29.4,22.7,98,73,38,30.53,30.10,25,5,25,0.00
2013-1-10,49.5,40.3,29.5,49.5,38.2,-49.0,100,93,55,30.52,29.82,24,5,24,0.00
2013-1-11,57.1,51.7,47.1,55.5,51.3,46.9,100,98,90,29.87,29.73,30,15,31,0.00
2013-1-12,51.9,37.1,28.6,51.3,35.2,27.4,100,93,71,30.01,29.76,25,8,26,0.00
2013-1-13,28.6,19.3,14.7,28.4,16.4,11.4,100,89,80,30.33,29.90,0,0,0,0.01
2013-1-14,24.7,19.2,13.3,17.5,14.8,10.7,93,83,62,30.49,20.83,0,0,0,0.00
2013-1-15,28.7,22.6,13.1,23.0,18.9,11.2,94,86,63,30.47,30.16,0,0,0,0.00
2013-1-16,36.9,31.0,15.3,31.5,24.9,13.8,97,79,57,30.17,29.95,32,6,32,0.00
2013-1-17,35.1,28.2,23.8,33.4,21.6,16.2,99,77,55,30.48,30.12,23,6,23,0.00
2013-1-18,44.4,35.1,22.8,31.7,27.7,18.1,92,75,54,30.49,30.05,37,14,37,0.02
2013-1-19,53.2,42.2,32.9,36.4,32.3,21.9,85,68,48,30.11,29.86,37,17,42,0.00
2013-1-20,32.9,20.4,16.4,22.3,10.9,4.5,79,67,46,30.37,30.11,41,13,41,0.00
2013-1-21,18.0,9.3,5.7,12.1,-1.8,-7.5,78,61,42,30.39,30.26,39,16,39,0.00
2013-1-22,16.7,12.0,3.0,1.6,-1.9,-7.2,74,54,40,30.47,30.37,22,7,22,0.00
2013-1-23,33.5,22.5,14.8,15.8,8.1,0.5,61,54,39,30.39,30.14,28,12,29,0.00
2013-1-24,23.4,19.1,7.9,9.8,3.5,-6.2,74,50,40,30.66,30.32,20,7,22,0.00
2013-1-25,36.9,28.1,20.3,20.0,15.4,3.9,86,60,41,30.33,30.05,28,10,28,0.00
2013-1-26,32.5,25.2,13.3,16.7,11.0,6.0,76,55,39,30.44,30.25,19,4,19,0.00
2013-1-27,44.1,35.5,25.7,44.1,33.1,15.7,100,91,63,30.38,29.95,27,10,27,0.00
2013-1-28,56.6,51.9,43.6,56.6,51.9,43.3,100,100,100,29.99,29.83,22,8,24,0.00
2013-1-29,64.1,55.7,50.8,63.8,55.7,50.8,100,100,96,29.84,29.44,37,8,37,0.01
2013-1-30,51.2,29.8,20.0,51.0,28.2,16.3,100,94,84,29.82,29.31,55,19,55,0.00
2013-1-31,23.6,12.9,6.6,22.5,5.7,-2.3,96,73,59,30.32,29.82,39,21,41,0.00